Terminal Aerodrome Forecast
Issued by NWS Louisville, KY

Home | Current Version | Previous Version | Text Only | Print | Product List | Glossary On
Versions: 1 2 3 4 5 6 7 8 9 10 11 12 13 14 15 16 17 18 19 20 21 22 23 24 25 26
000
FTUS43 KLMK 020700 AAB
TAFSDF
TAF AMD
KSDF 020747Z 0208/0312 VRB03KT 6SM BR VCSH BKN007 BKN015
     FM021000 17005KT 6SM -SHRA BKN035
     FM021500 18007KT P6SM SCT035 BKN150
     FM021900 20008KT 6SM -SHRA VCTS BKN035CB=

USA.gov is the U.S. government's official web portal to all federal, state and local government web resources and services.